createdAt,value
2023-05-10T00:04:18.291Z,3.90
2023-05-10T00:09:21.398Z,3.30
2023-05-10T00:14:24.288Z,3.23
2023-05-10T00:19:28.564Z,3.30
2023-05-10T00:24:31.542Z,3.57
2023-05-10T00:29:34.886Z,3.30
2023-05-10T00:34:39.192Z,3.00
2023-05-10T00:39:42.363Z,3.70
2023-05-10T00:44:45.270Z,3.70
2023-05-10T00:49:49.898Z,3.50
2023-05-10T00:54:54.588Z,3.40
2023-05-10T00:59:57.838Z,3.27
2023-05-10T01:05:02.404Z,3.50
2023-05-10T01:10:06.691Z,3.77
2023-05-10T01:15:11.918Z,3.57
2023-05-10T01:20:17.869Z,2.97
2023-05-10T01:25:53.557Z,3.50
2023-05-10T01:31:10.704Z,3.57
2023-05-10T01:36:27.041Z,3.37
2023-05-10T01:41:38.362Z,3.40
2023-05-10T01:46:42.244Z,3.43
2023-05-10T01:51:49.200Z,2.90
2023-05-10T01:56:58.144Z,3.17
2023-05-10T02:02:02.822Z,3.10
2023-05-10T02:07:08.448Z,2.73
2023-05-10T02:12:14.617Z,3.40
2023-05-10T02:17:18.450Z,2.93
2023-05-10T02:22:23.701Z,3.90
2023-05-10T02:27:29.379Z,2.80
2023-05-10T02:32:32.727Z,2.93
2023-05-10T02:37:38.768Z,3.10
2023-05-10T02:42:44.507Z,3.40
2023-05-10T02:47:47.550Z,3.30
2023-05-10T02:52:53.886Z,3.33
2023-05-10T02:58:00.545Z,3.30
2023-05-10T03:03:03.596Z,3.57
2023-05-10T03:08:08.211Z,3.10
2023-05-10T03:13:18.660Z,3.67
2023-05-10T03:18:25.362Z,3.80
2023-05-10T03:23:36.879Z,3.60
2023-05-10T03:28:41.775Z,3.97
2023-05-10T03:33:49.334Z,4.17
2023-05-10T03:38:56.429Z,3.90
2023-05-10T03:43:59.335Z,3.27
2023-05-10T03:49:02.324Z,3.53
2023-05-10T03:54:06.822Z,3.33
2023-05-10T03:59:10.080Z,3.30
2023-05-10T04:04:13.357Z,3.67
2023-05-10T04:09:18.210Z,3.90
2023-05-10T04:14:21.120Z,3.40
2023-05-10T04:19:24.349Z,3.63
2023-05-10T04:24:28.681Z,3.80
2023-05-10T04:29:31.993Z,3.10
2023-05-10T04:34:35.347Z,3.40
2023-05-10T04:39:42.031Z,3.30
2023-05-10T04:44:45.247Z,3.00
2023-05-10T04:49:48.148Z,2.93
2023-05-10T04:54:52.427Z,3.00
2023-05-10T04:59:55.324Z,3.20
2023-05-10T05:04:58.796Z,3.00
2023-05-10T05:10:03.075Z,3.10
2023-05-10T05:15:09.044Z,3.00
2023-05-10T05:20:14.145Z,3.00
2023-05-10T05:25:19.063Z,3.10
2023-05-10T05:30:22.733Z,2.67
2023-05-10T05:35:25.984Z,3.00
2023-05-10T05:40:30.239Z,3.13
2023-05-10T05:45:33.211Z,3.10
2023-05-10T05:50:36.111Z,3.07
2023-05-10T05:55:40.417Z,2.90
2023-05-10T06:00:43.358Z,3.43
2023-05-10T06:05:46.216Z,2.83
2023-05-10T06:10:50.555Z,3.30
2023-05-10T06:15:53.455Z,3.20
2023-05-10T06:20:56.317Z,3.80
2023-05-10T06:26:00.594Z,2.90
2023-05-10T06:31:03.496Z,3.07
2023-05-10T06:36:06.976Z,3.27
2023-05-10T06:41:11.311Z,3.17
2023-05-10T06:46:14.179Z,2.90
2023-05-10T06:51:17.105Z,3.17
2023-05-10T06:56:22.452Z,2.90
2023-05-10T07:01:25.634Z,3.20
2023-05-10T07:06:33.379Z,3.30
2023-05-10T07:11:38.559Z,3.30
2023-05-10T07:16:41.763Z,3.40
2023-05-10T07:21:44.719Z,3.17
2023-05-10T07:26:48.964Z,3.40
2023-05-10T07:31:51.872Z,2.80
2023-05-10T07:36:54.976Z,3.50
2023-05-10T07:41:59.293Z,2.90
2023-05-10T07:47:02.209Z,3.27
2023-05-10T07:52:05.519Z,3.30
2023-05-10T07:57:09.803Z,3.40
2023-05-10T08:02:12.764Z,3.60
2023-05-10T08:07:15.755Z,3.27
2023-05-10T08:12:19.983Z,3.30
2023-05-10T08:17:24.698Z,3.80
2023-05-10T08:22:27.719Z,4.10
2023-05-10T08:27:31.937Z,4.23
2023-05-10T08:32:35.995Z,3.50
2023-05-10T08:37:39.009Z,3.80
2023-05-10T08:42:49.561Z,3.40
2023-05-10T08:47:54.491Z,4.37
2023-05-10T08:53:02.079Z,3.50
2023-05-10T08:58:06.669Z,3.60
2023-05-10T09:03:09.594Z,3.63
2023-05-10T09:08:13.944Z,4.13
2023-05-10T09:13:19.547Z,3.30
2023-05-10T09:18:22.556Z,3.57
2023-05-10T09:23:32.367Z,3.90
2023-05-10T09:28:51.860Z,3.80
2023-05-10T09:33:55.769Z,3.40
2023-05-10T09:38:59.703Z,4.50
2023-05-10T09:44:03.918Z,4.10
2023-05-10T09:49:07.791Z,3.90
2023-05-10T09:54:12.125Z,3.97
2023-05-10T09:59:16.389Z,5.33
2023-05-10T10:04:19.605Z,4.80
2023-05-10T10:09:22.643Z,4.00
2023-05-10T10:14:27.358Z,4.40
2023-05-10T10:19:30.490Z,4.53
2023-05-10T10:24:33.618Z,3.80
2023-05-10T10:29:46.894Z,3.80
2023-05-10T10:34:50.366Z,4.27
2023-05-10T10:39:53.326Z,4.37
2023-05-10T10:45:14.764Z,4.53
2023-05-10T10:50:18.103Z,4.00
2023-05-10T10:55:23.494Z,4.33
2023-05-10T11:00:29.980Z,4.00
2023-05-10T11:05:42.837Z,4.70
2023-05-10T11:11:04.601Z,4.50
2023-05-10T11:16:24.613Z,4.30
2023-05-10T11:21:28.065Z,3.90
2023-05-10T11:26:34.395Z,4.93
2023-05-10T11:31:44.784Z,4.00
2023-05-10T11:36:54.798Z,5.23
2023-05-10T11:41:58.302Z,5.10
2023-05-10T11:47:03.041Z,4.50
2023-05-10T11:52:07.224Z,4.60
2023-05-10T11:57:10.146Z,4.77
2023-05-10T12:02:14.820Z,4.83
2023-05-10T12:07:18.136Z,4.47
2023-05-10T12:12:20.992Z,4.70
2023-05-10T12:17:29.681Z,5.10
2023-05-10T12:22:35.973Z,5.07
2023-05-10T12:27:39.030Z,5.10
2023-05-10T12:32:44.110Z,4.57
2023-05-10T12:37:46.991Z,4.97
2023-05-10T12:42:50.039Z,4.30
2023-05-10T12:47:54.517Z,5.10
2023-05-10T12:52:57.442Z,4.80
2023-05-10T12:58:00.457Z,4.90
2023-05-10T13:03:04.825Z,4.67
2023-05-10T13:08:07.828Z,5.17
2023-05-10T13:13:10.915Z,4.20
2023-05-10T13:18:15.496Z,3.90
2023-05-10T13:23:18.595Z,4.10
2023-05-10T13:28:21.441Z,4.33
2023-05-10T13:33:25.827Z,5.23
2023-05-10T13:38:28.689Z,4.60
2023-05-10T13:43:31.676Z,4.50
2023-05-10T13:48:39.183Z,4.17
2023-05-10T13:53:42.499Z,4.20
2023-05-10T13:58:45.430Z,4.40
2023-05-10T14:03:49.807Z,4.20
2023-05-10T14:08:52.975Z,4.30
2023-05-10T14:13:55.890Z,4.20
2023-05-10T14:19:00.262Z,4.97
2023-05-10T14:24:03.236Z,5.60
2023-05-10T14:29:06.117Z,5.43
2023-05-10T14:34:10.390Z,5.10
2023-05-10T14:39:13.788Z,5.20
2023-05-10T14:44:17.350Z,3.97
2023-05-10T14:49:23.655Z,3.47
2023-05-10T14:54:26.958Z,3.00
2023-05-10T14:59:29.896Z,3.17
2023-05-10T15:04:34.798Z,3.70
2023-05-10T15:09:38.264Z,3.50
2023-05-10T15:14:41.144Z,3.20
2023-05-10T15:19:45.451Z,3.77
2023-05-10T15:24:48.370Z,4.13
2023-05-10T15:29:51.442Z,3.50
2023-05-10T15:34:55.764Z,3.60
2023-05-10T15:40:04.206Z,3.80
2023-05-10T15:45:08.158Z,3.27
2023-05-10T15:50:13.473Z,4.07
2023-05-10T15:55:17.173Z,4.23
2023-05-10T16:00:20.675Z,4.37
2023-05-10T16:05:24.903Z,4.53
2023-05-10T16:10:28.107Z,4.40
2023-05-10T16:15:31.002Z,4.73
2023-05-10T16:20:35.385Z,5.07
2023-05-10T16:25:38.371Z,4.30
2023-05-10T16:30:41.707Z,4.63
2023-05-10T16:35:46.332Z,4.80
2023-05-10T16:40:49.318Z,4.63
2023-05-10T16:45:52.262Z,4.97
2023-05-10T16:50:57.837Z,5.90
2023-05-10T16:56:00.867Z,4.73
2023-05-10T17:01:04.229Z,4.73
2023-05-10T17:06:09.060Z,5.20
2023-05-10T17:11:12.096Z,5.03
2023-05-10T17:16:15.127Z,4.90
2023-05-10T17:21:19.490Z,5.07
2023-05-10T17:26:22.508Z,5.10
2023-05-10T17:31:25.590Z,4.43
2023-05-10T17:36:29.858Z,4.70
2023-05-10T17:41:32.852Z,4.70
2023-05-10T17:46:36.414Z,4.17
2023-05-10T17:51:41.452Z,3.60
2023-05-10T17:56:44.602Z,3.30
2023-05-10T18:01:47.637Z,3.70
2023-05-10T18:06:51.992Z,3.47
2023-05-10T18:11:54.982Z,3.53
2023-05-10T18:16:57.997Z,3.77
2023-05-10T18:22:02.356Z,3.80
2023-05-10T18:27:05.855Z,3.33
2023-05-10T18:32:08.973Z,3.50
2023-05-10T18:37:13.684Z,3.07
2023-05-10T18:42:16.944Z,3.00
2023-05-10T18:47:19.952Z,3.07
2023-05-10T18:52:24.229Z,2.60
2023-05-10T18:57:27.238Z,2.83
2023-05-10T19:02:30.150Z,3.60
2023-05-10T19:07:34.770Z,2.80
2023-05-10T19:12:37.711Z,3.53
2023-05-10T19:17:42.116Z,3.20
2023-05-10T19:23:02.054Z,2.77
2023-05-10T19:28:11.421Z,3.00
2023-05-10T19:33:14.528Z,2.90
2023-05-10T19:38:21.091Z,3.00
2023-05-10T19:43:24.574Z,3.10
2023-05-10T19:48:28.388Z,3.67
2023-05-10T19:53:33.290Z,4.07
2023-05-10T19:58:36.415Z,2.70
2023-05-10T20:03:39.376Z,7.67
2023-05-10T20:08:43.661Z,2.90
2023-05-10T20:13:46.608Z,3.10
2023-05-10T20:18:49.620Z,3.37
2023-05-10T20:23:53.892Z,3.77
2023-05-10T20:28:56.838Z,3.53
2023-05-10T20:33:59.824Z,3.60
2023-05-10T20:39:04.130Z,3.60
2023-05-10T20:44:07.147Z,3.30
2023-05-10T20:49:10.145Z,4.20
2023-05-10T20:54:14.476Z,4.10
2023-05-10T20:59:17.809Z,3.77
2023-05-10T21:04:21.281Z,3.93
2023-05-10T21:09:25.574Z,3.40
2023-05-10T21:14:28.433Z,3.57
2023-05-10T21:19:31.343Z,3.60
2023-05-10T21:24:35.835Z,3.40
2023-05-10T21:29:39.187Z,3.00
2023-05-10T21:34:42.080Z,3.13
2023-05-10T21:39:46.358Z,3.70
2023-05-10T21:44:49.312Z,3.73
2023-05-10T21:49:52.355Z,3.40
2023-05-10T21:54:56.627Z,3.40
2023-05-10T21:59:59.645Z,3.50
2023-05-10T22:05:02.690Z,3.20
2023-05-10T22:10:08.330Z,3.60
2023-05-10T22:15:12.056Z,3.90
2023-05-10T22:20:15.424Z,3.37
2023-05-10T22:25:19.886Z,3.97
2023-05-10T22:30:22.906Z,3.87
2023-05-10T22:35:26.052Z,4.17
2023-05-10T22:40:30.279Z,3.80
2023-05-10T22:45:33.119Z,3.53
2023-05-10T22:50:36.882Z,3.70
2023-05-10T22:55:41.372Z,4.17
2023-05-10T23:00:44.266Z,4.03
2023-05-10T23:05:47.259Z,3.67
2023-05-10T23:10:51.719Z,4.00
2023-05-10T23:15:54.613Z,3.80
2023-05-10T23:20:57.528Z,3.90
2023-05-10T23:26:01.782Z,4.33
2023-05-10T23:31:04.772Z,4.60
2023-05-10T23:36:08.166Z,4.10
2023-05-10T23:41:12.535Z,4.37
2023-05-10T23:46:15.584Z,3.77
2023-05-10T23:51:18.471Z,4.80
2023-05-10T23:56:23.131Z,4.43
